Davenport, Iowa
Current Conditions -  °F | °C
As of 5:52 AM on Monday 26 Jan 2015 (Local Time) from KDVN Reporting Station
Overcast Overcast  
Wind Chill: 17°   Ceiling: 1900
Heat Index: 17°   Visibility: 10mi
Dew Point: 12°   Wind: 3mph
Humidity: 81%   Direction: 170°S
Pressure: 29.97"   Gusts: NA
Location:  41.54°N, 90.58°W
Report Text: KDVN 261152Z AUTO 17003KT 10SM OVC019 M08/M11 A2997 RMK AO2 SLP162 70004 T10831111 11083 21128 58018
Loading
Personal Weather Stations






























Interactive Weather Map New forecast layout! Learn more

10-Day Weather Forecast

Advertisements
Track Severe Weather on mobile